createdAt,value
2019-02-06T04:54:05.531Z,102030.19
2019-02-06T04:56:36.034Z,102031.36
2019-02-06T04:59:06.466Z,102026.37
2019-02-06T05:01:38.421Z,102029.63
2019-02-06T05:04:08.856Z,102030.41
2019-02-06T05:06:39.265Z,102030.80
2019-02-06T05:09:13.799Z,102029.52
2019-02-06T05:11:44.231Z,102038.67
2019-02-06T05:14:14.662Z,102033.30
2019-02-06T05:16:45.191Z,102036.68
2019-02-06T05:19:16.159Z,102036.06
2019-02-06T05:21:47.525Z,102038.11
2019-02-06T05:24:18.321Z,102035.61
2019-02-06T05:26:48.715Z,102032.75
2019-02-06T05:29:19.280Z,102037.48
2019-02-06T05:31:49.737Z,102040.31
2019-02-06T05:34:20.235Z,102048.90
2019-02-06T05:36:51.133Z,102051.27
2019-02-06T05:39:21.707Z,102050.28
2019-02-06T05:41:52.542Z,102047.75
2019-02-06T05:44:22.971Z,102061.07
2019-02-06T05:46:53.407Z,102060.73
2019-02-06T05:49:23.823Z,102064.63
2019-02-06T05:51:54.260Z,102060.24
2019-02-06T05:54:24.698Z,102061.13
2019-02-06T05:56:55.416Z,102066.33
2019-02-06T05:59:25.959Z,102073.59
2019-02-06T06:01:56.338Z,102072.91
2019-02-06T06:04:26.811Z,102061.43
2019-02-06T06:06:57.233Z,102068.34
2019-02-06T06:09:27.691Z,102065.50
2019-02-06T06:11:58.108Z,102074.59
2019-02-06T06:14:28.517Z,102077.62
2019-02-06T06:16:59.066Z,102075.91
2019-02-06T06:19:29.687Z,102082.33
2019-02-06T06:22:00.355Z,102085.05
2019-02-06T06:24:30.849Z,102083.73
2019-02-06T06:27:01.269Z,102087.77
2019-02-06T06:29:31.703Z,102087.45
2019-02-06T06:32:02.181Z,102089.16
2019-02-06T06:34:32.647Z,102096.20
2019-02-06T06:37:03.503Z,102096.50
2019-02-06T06:39:33.933Z,102098.22
2019-02-06T06:42:04.326Z,102101.24
2019-02-06T06:44:35.197Z,102106.02
2019-02-06T06:47:05.615Z,102101.80
2019-02-06T06:49:36.073Z,102108.70
2019-02-06T06:52:06.609Z,102111.41
2019-02-06T06:54:37.187Z,102108.20
2019-02-06T06:57:07.654Z,102112.09
2019-02-06T06:59:38.217Z,102123.41
2019-02-06T07:02:08.711Z,102122.23
2019-02-06T07:04:39.435Z,102119.38
2019-02-06T07:07:09.867Z,102122.08
2019-02-06T07:09:40.396Z,102125.80
2019-02-06T07:12:11.026Z,102117.19
2019-02-06T07:14:41.480Z,102125.80
2019-02-06T07:17:11.890Z,102120.92
2019-02-06T07:19:42.310Z,102121.41
2019-02-06T07:22:12.742Z,102129.67
2019-02-06T07:24:43.175Z,102129.84
2019-02-06T07:27:13.574Z,102133.41
2019-02-06T07:29:43.973Z,102125.64
2019-02-06T07:32:14.962Z,102132.40
2019-02-06T07:34:45.393Z,102134.06
2019-02-06T07:37:15.924Z,102135.43
2019-02-06T07:39:46.459Z,102137.27
2019-02-06T07:42:17.016Z,102139.13
2019-02-06T07:44:47.514Z,102137.76
2019-02-06T07:47:17.946Z,102142.82
2019-02-06T07:49:48.481Z,102138.27
2019-02-06T07:52:19.010Z,102141.48
2019-02-06T07:54:49.637Z,102141.81
2019-02-06T07:57:20.600Z,102139.92
2019-02-06T07:59:51.524Z,102145.20
2019-02-06T08:02:22.058Z,102141.78
2019-02-06T08:04:52.475Z,102148.19
2019-02-06T08:07:22.872Z,102141.05
2019-02-06T08:09:53.334Z,102146.31
2019-02-06T08:12:24.210Z,102149.70
2019-02-06T08:14:55.032Z,102143.21
2019-02-06T08:17:25.511Z,102147.77
2019-02-06T08:19:55.961Z,102142.02
2019-02-06T08:22:26.393Z,102148.09
2019-02-06T08:24:57.942Z,102144.44
2019-02-06T08:27:28.781Z,102141.78
2019-02-06T08:29:59.427Z,102141.28
2019-02-06T08:32:29.842Z,102147.05
2019-02-06T08:35:01.417Z,102144.64
2019-02-06T08:37:32.032Z,102144.08
2019-02-06T08:40:02.665Z,102153.47
2019-02-06T08:42:33.204Z,102154.77
2019-02-06T08:45:04.933Z,102149.65
2019-02-06T08:47:35.338Z,102148.27
2019-02-06T08:50:09.130Z,102140.14
2019-02-06T08:52:39.560Z,102146.59
2019-02-06T08:55:13.370Z,102145.05
2019-02-06T08:57:43.860Z,102144.59
2019-02-06T09:00:17.581Z,102143.41
2019-02-06T09:02:48.106Z,102143.77
2019-02-06T09:05:18.511Z,102135.89
2019-02-06T09:07:49.192Z,102130.39
2019-02-06T09:10:24.668Z,102128.94
2019-02-06T09:12:56.380Z,102116.92
2019-02-06T09:15:27.606Z,102125.37
2019-02-06T09:17:58.129Z,102121.84
2019-02-06T09:20:30.148Z,102121.48
2019-02-06T09:23:00.619Z,102121.98
2019-02-06T09:25:31.481Z,102120.71
2019-02-06T09:28:02.011Z,102120.49
2019-02-06T09:30:35.096Z,102124.14
2019-02-06T09:33:05.934Z,102121.75
2019-02-06T09:35:36.401Z,102113.36
2019-02-06T09:38:06.800Z,102116.11
2019-02-06T09:40:37.317Z,102116.96
2019-02-06T09:43:07.721Z,102120.66
2019-02-06T09:45:39.205Z,102115.47
2019-02-06T09:48:09.778Z,102122.61
2019-02-06T09:50:40.178Z,102112.33
2019-02-06T09:53:10.641Z,102101.31
2019-02-06T09:55:41.123Z,102090.00
2019-02-06T09:58:11.514Z,102100.02
2019-02-06T10:00:41.984Z,102106.61
2019-02-06T10:03:12.445Z,102112.73
2019-02-06T10:05:42.929Z,102110.14
2019-02-06T10:08:13.460Z,102108.80
2019-02-06T10:10:43.895Z,102104.89
2019-02-06T10:13:16.490Z,102109.00
2019-02-06T10:15:46.490Z,102110.20
2019-02-06T10:18:17.329Z,102104.14
2019-02-06T10:20:49.184Z,102108.03
2019-02-06T10:23:19.716Z,102104.44
2019-02-06T10:25:50.248Z,102106.82
2019-02-06T10:28:20.678Z,102101.80
2019-02-06T10:30:51.110Z,102105.63
2019-02-06T10:33:21.535Z,102102.53
2019-02-06T10:35:52.582Z,102093.28
2019-02-06T10:38:23.207Z,102095.20
2019-02-06T10:40:53.639Z,102089.92
2019-02-06T10:43:31.750Z,102089.04
2019-02-06T10:45:56.545Z,102087.70
2019-02-06T10:48:26.973Z,102083.08
2019-02-06T10:50:58.471Z,102075.05
2019-02-06T10:53:29.057Z,102073.47
2019-02-06T10:55:59.995Z,102072.12
2019-02-06T10:58:30.740Z,102068.24
2019-02-06T11:01:01.359Z,102061.61
2019-02-06T11:03:31.826Z,102058.55
2019-02-06T11:06:02.324Z,102062.27
2019-02-06T11:08:32.755Z,102060.06
2019-02-06T11:11:03.323Z,102065.82
2019-02-06T11:13:33.816Z,102059.02
2019-02-06T11:16:04.294Z,102058.13
2019-02-06T11:18:34.767Z,102056.00
2019-02-06T11:21:05.296Z,102044.23
2019-02-06T11:23:35.759Z,102046.36
2019-02-06T11:26:06.268Z,102051.14
2019-02-06T11:28:37.809Z,102041.22
2019-02-06T11:31:08.450Z,102043.55
2019-02-06T11:33:38.871Z,102037.22
2019-02-06T11:36:09.307Z,102041.61
2019-02-06T11:38:39.876Z,102038.11
2019-02-06T11:41:10.266Z,102025.04
2019-02-06T11:43:40.818Z,102030.33
2019-02-06T11:46:11.527Z,102030.98
2019-02-06T11:48:43.399Z,102032.77
2019-02-06T11:51:14.538Z,102028.83
2019-02-06T11:53:45.183Z,102025.33
2019-02-06T11:56:16.214Z,102021.63
2019-02-06T11:58:47.667Z,102016.25
2019-02-06T12:01:19.734Z,102015.02
2019-02-06T12:03:50.155Z,102005.03
2019-02-06T12:06:20.596Z,102013.87
2019-02-06T12:08:51.082Z,102024.66
2019-02-06T12:11:22.475Z,102015.28
2019-02-06T12:13:52.891Z,102019.10
2019-02-06T12:16:23.487Z,102006.84
2019-02-06T12:18:54.485Z,102000.44
2019-02-06T12:21:26.020Z,101991.03
2019-02-06T12:23:56.455Z,101987.62
2019-02-06T12:26:26.984Z,101989.48
2019-02-06T12:28:57.862Z,101983.56
2019-02-06T12:31:28.256Z,101971.70
2019-02-06T12:33:58.722Z,101965.72
2019-02-06T12:36:29.204Z,101963.03
2019-02-06T12:38:59.669Z,101953.36
2019-02-06T12:41:30.166Z,101956.79
2019-02-06T12:44:01.644Z,101956.54
2019-02-06T12:46:32.148Z,101960.36
2019-02-06T12:49:02.777Z,101958.84
2019-02-06T12:51:33.210Z,101955.58
2019-02-06T12:54:03.641Z,101940.29
2019-02-06T12:56:34.062Z,101938.69
2019-02-06T12:59:04.597Z,101942.15
2019-02-06T13:01:35.026Z,101945.80
2019-02-06T13:04:05.600Z,101934.05
2019-02-06T13:06:36.191Z,101923.27
2019-02-06T13:09:08.030Z,101927.28
2019-02-06T13:11:38.435Z,101915.80
2019-02-06T13:14:08.980Z,101916.35
2019-02-06T13:16:39.438Z,101910.84
2019-02-06T13:19:09.870Z,101914.44
2019-02-06T13:21:40.398Z,101906.91
2019-02-06T13:24:10.820Z,101897.33
2019-02-06T13:26:44.120Z,101897.73
2019-02-06T13:29:13.358Z,101895.37
2019-02-06T13:31:44.145Z,101894.83
2019-02-06T13:34:14.547Z,101892.75
2019-02-06T13:36:45.022Z,101891.89
2019-02-06T13:39:15.551Z,101886.89
2019-02-06T13:41:45.971Z,101879.86
2019-02-06T13:44:16.459Z,101873.45
2019-02-06T13:46:53.235Z,101873.02
2019-02-06T13:49:20.369Z,101869.80
2019-02-06T13:51:50.834Z,101865.80
2019-02-06T13:54:21.249Z,101858.36
2019-02-06T13:56:51.714Z,101854.29
2019-02-06T13:59:22.098Z,101851.73
2019-02-06T14:01:52.644Z,101854.95
2019-02-06T14:04:23.174Z,101850.41
2019-02-06T14:06:53.804Z,101853.50
2019-02-06T14:09:26.045Z,101851.30
2019-02-06T14:11:56.617Z,101852.70
2019-02-06T14:14:27.235Z,101850.62
2019-02-06T14:16:58.594Z,101844.72
2019-02-06T14:19:29.012Z,101840.16
2019-02-06T14:21:59.446Z,101843.16
2019-02-06T14:24:33.147Z,101835.42
2019-02-06T14:27:10.241Z,101839.05
2019-02-06T14:30:08.109Z,101828.08
2019-02-06T14:32:47.746Z,101825.38
2019-02-06T14:35:24.120Z,101820.89
2019-02-06T14:38:03.972Z,101823.12
2019-02-06T14:40:56.110Z,101812.18
2019-02-06T14:43:53.980Z,101821.72
2019-02-06T14:46:53.514Z,101812.85
2019-02-06T14:49:42.290Z,101810.05
2019-02-06T14:52:16.009Z,101803.17
2019-02-06T14:54:55.258Z,101800.52
2019-02-06T14:57:34.432Z,101797.63
2019-02-06T15:00:20.622Z,101788.94
2019-02-06T15:03:06.613Z,101788.95
2019-02-06T15:05:50.453Z,101789.99
2019-02-06T15:08:57.234Z,101788.50
2019-02-06T15:11:47.422Z,101782.92
2019-02-06T15:14:33.188Z,101776.08
2019-02-06T15:17:16.133Z,101774.28
2019-02-06T15:20:04.798Z,101765.04
2019-02-06T15:22:59.717Z,101770.64
2019-02-06T15:25:42.212Z,101773.79
2019-02-06T15:28:24.767Z,101774.52
2019-02-06T15:31:25.515Z,101774.28
2019-02-06T15:33:59.169Z,101763.91
2019-02-06T15:36:32.841Z,101770.02
2019-02-06T15:39:15.894Z,101763.66
2019-02-06T15:41:55.947Z,101756.63
2019-02-06T15:44:38.670Z,101741.45
2019-02-06T15:47:33.772Z,101747.59
2019-02-06T15:50:13.263Z,101755.36
2019-02-06T15:53:03.632Z,101753.42
2019-02-06T15:56:01.274Z,101747.55
2019-02-06T15:58:56.173Z,101749.77
2019-02-06T16:01:48.012Z,101750.12
2019-02-06T16:04:38.496Z,101754.67
2019-02-06T16:07:26.960Z,101741.05
2019-02-06T16:10:07.836Z,101740.05
2019-02-06T16:12:53.597Z,101741.41
2019-02-06T16:15:36.245Z,101742.61
2019-02-06T16:18:12.797Z,101741.78
2019-02-06T16:21:04.347Z,101734.85
2019-02-06T16:23:46.914Z,101734.02
2019-02-06T16:26:38.615Z,101725.58
2019-02-06T16:29:24.043Z,101725.78
2019-02-06T16:32:29.873Z,101728.32
2019-02-06T16:35:06.072Z,101724.79
2019-02-06T16:37:49.201Z,101724.30
2019-02-06T16:40:36.015Z,101718.22
2019-02-06T16:43:15.543Z,101720.94
2019-02-06T16:46:23.913Z,101717.75
2019-02-06T16:49:03.307Z,101720.95
2019-02-06T16:51:40.079Z,101728.70
2019-02-06T16:54:31.598Z,101723.66
2019-02-06T16:57:23.647Z,101719.27
2019-02-06T17:00:23.459Z,101722.31
2019-02-06T17:03:06.077Z,101716.58
2019-02-06T17:06:08.562Z,101729.03
2019-02-06T17:09:17.173Z,101721.95
2019-02-06T17:12:04.539Z,101717.92
2019-02-06T17:14:47.639Z,101718.25
2019-02-06T17:17:38.378Z,101717.57
2019-02-06T17:20:24.227Z,101715.55
2019-02-06T17:23:21.283Z,101710.34
2019-02-06T17:26:06.812Z,101712.38
2019-02-06T17:29:01.579Z,101712.05
2019-02-06T17:31:47.245Z,101705.47
2019-02-06T17:34:29.964Z,101702.44
2019-02-06T17:37:26.032Z,101696.38
2019-02-06T17:40:07.242Z,101693.33
2019-02-06T17:42:55.859Z,101692.17
2019-02-06T17:45:41.404Z,101687.11
2019-02-06T17:48:17.772Z,101691.33
2019-02-06T17:51:09.613Z,101687.27
2019-02-06T17:53:43.276Z,101683.05
2019-02-06T17:56:13.683Z,101684.56
2019-02-06T17:58:44.149Z,101692.45
2019-02-06T18:01:19.517Z,101686.24
2019-02-06T18:03:50.559Z,101686.91
2019-02-06T18:06:20.961Z,101687.37
2019-02-06T18:08:56.779Z,101683.01
2019-02-06T18:11:23.593Z,101686.88
2019-02-06T18:13:54.071Z,101690.55
2019-02-06T18:16:24.516Z,101691.54
2019-02-06T18:18:55.887Z,101688.88
2019-02-06T18:21:26.346Z,101685.50
2019-02-06T18:23:57.789Z,101689.86
2019-02-06T18:26:28.642Z,101685.34
2019-02-06T18:28:59.138Z,101689.20
2019-02-06T18:31:29.811Z,101687.34
2019-02-06T18:34:00.306Z,101683.63
2019-02-06T18:36:30.726Z,101677.75
2019-02-06T18:39:01.157Z,101677.55
2019-02-06T18:41:31.691Z,101679.88
2019-02-06T18:44:02.274Z,101673.81
2019-02-06T18:46:32.753Z,101673.97
2019-02-06T18:49:03.489Z,101666.06
2019-02-06T18:51:33.960Z,101672.95
2019-02-06T18:54:05.699Z,101672.29
2019-02-06T18:56:36.174Z,101665.69
2019-02-06T18:59:06.851Z,101656.77
2019-02-06T19:01:37.372Z,101654.40
2019-02-06T19:04:07.903Z,101653.22
2019-02-06T19:06:38.436Z,101652.20
2019-02-06T19:09:11.254Z,101651.70
2019-02-06T19:11:41.745Z,101649.02
2019-02-06T19:14:12.273Z,101642.57
2019-02-06T19:16:42.906Z,101644.94
2019-02-06T19:19:24.847Z,101640.58
2019-02-06T19:21:45.952Z,101632.35
2019-02-06T19:24:17.900Z,101627.95
2019-02-06T19:26:48.483Z,101629.45
2019-02-06T19:29:19.046Z,101631.00
2019-02-06T19:31:49.632Z,101631.16
2019-02-06T19:34:20.108Z,101629.98
2019-02-06T19:36:50.529Z,101627.14
2019-02-06T19:39:20.961Z,101624.94
2019-02-06T19:41:51.391Z,101622.09
2019-02-06T19:44:21.925Z,101622.25
2019-02-06T19:46:52.490Z,101608.32
2019-02-06T19:49:23.082Z,101607.30
2019-02-06T19:51:53.622Z,101609.34
2019-02-06T19:54:24.108Z,101601.59
2019-02-06T19:56:54.577Z,101595.20
2019-02-06T19:59:25.108Z,101590.16
2019-02-06T20:01:55.888Z,101592.35
2019-02-06T20:04:26.372Z,101594.52
2019-02-06T20:06:56.904Z,101586.81
2019-02-06T20:09:27.329Z,101585.97
2019-02-06T20:11:58.268Z,101584.82
2019-02-06T20:14:28.700Z,101584.83
2019-02-06T20:16:59.229Z,101578.96
2019-02-06T20:19:29.660Z,101581.64
2019-02-06T20:22:00.192Z,101579.45
2019-02-06T20:24:30.949Z,101579.45
2019-02-06T20:27:01.560Z,101577.13
2019-02-06T20:29:31.964Z,101573.09
